createdAt,value
2023-04-27T00:00:30.133Z,76.90
2023-04-27T00:02:58.730Z,77.20
2023-04-27T00:05:27.693Z,77.00
2023-04-27T00:07:56.098Z,77.00
2023-04-27T00:10:24.444Z,76.90
2023-04-27T00:12:52.757Z,76.90
2023-04-27T00:15:22.487Z,77.00
2023-04-27T00:17:51.488Z,76.60
2023-04-27T00:20:20.775Z,76.30
2023-04-27T00:22:49.078Z,77.00
2023-04-27T00:25:17.430Z,76.10
2023-04-27T00:27:45.713Z,76.10
2023-04-27T00:30:14.259Z,75.70
2023-04-27T00:32:44.050Z,75.80
2023-04-27T00:35:12.772Z,76.00
2023-04-27T00:37:41.213Z,76.00
2023-04-27T00:40:10.404Z,75.90
2023-04-27T00:42:38.834Z,75.70
2023-04-27T00:45:08.199Z,75.70
2023-04-27T00:47:36.700Z,75.30
2023-04-27T00:50:08.751Z,75.20
2023-04-27T00:52:38.717Z,74.60
2023-04-27T00:55:08.328Z,74.50
2023-04-27T00:57:37.389Z,74.70
2023-04-27T01:00:07.357Z,74.70
2023-04-27T01:02:37.583Z,74.70
2023-04-27T01:05:14.926Z,75.00
2023-04-27T01:07:44.215Z,75.00
2023-04-27T01:10:12.595Z,75.00
2023-04-27T01:12:41.224Z,75.10
2023-04-27T01:15:11.700Z,75.00
2023-04-27T01:17:40.094Z,75.10
2023-04-27T01:20:11.322Z,75.10
2023-04-27T01:22:39.898Z,75.10
2023-04-27T01:25:11.093Z,75.20
2023-04-27T01:27:39.386Z,75.10
2023-04-27T01:30:09.183Z,75.10
2023-04-27T01:32:39.068Z,74.70
2023-04-27T01:35:08.092Z,74.50
2023-04-27T01:37:41.339Z,74.80
2023-04-27T01:40:12.022Z,75.00
2023-04-27T01:42:40.471Z,74.50
2023-04-27T01:45:10.215Z,74.40
2023-04-27T01:47:39.239Z,74.30
2023-04-27T01:50:08.483Z,74.50
2023-04-27T01:52:36.791Z,74.50
2023-04-27T01:55:05.614Z,74.50
2023-04-27T01:57:35.542Z,74.40
2023-04-27T02:00:05.346Z,74.40
2023-04-27T02:02:33.940Z,74.60
2023-04-27T02:05:02.506Z,74.50
2023-04-27T02:07:30.818Z,74.40
2023-04-27T02:09:59.070Z,74.20
2023-04-27T02:12:27.422Z,74.20
2023-04-27T02:14:59.555Z,74.20
2023-04-27T02:17:29.308Z,75.00
2023-04-27T02:19:57.687Z,74.10
2023-04-27T02:22:26.094Z,74.20
2023-04-27T02:24:54.488Z,74.30
2023-04-27T02:27:22.781Z,74.20
2023-04-27T02:29:51.618Z,74.20
2023-04-27T02:32:24.254Z,74.30
2023-04-27T02:34:52.568Z,74.20
2023-04-27T02:37:20.930Z,74.20
2023-04-27T02:39:49.187Z,74.40
2023-04-27T02:42:17.598Z,74.40
2023-04-27T02:44:46.196Z,74.40
2023-04-27T02:47:14.537Z,74.20
2023-04-27T02:49:44.585Z,74.30
2023-04-27T02:52:12.919Z,73.10
2023-04-27T02:54:41.236Z,72.70
2023-04-27T02:57:09.476Z,73.00
2023-04-27T02:59:37.744Z,72.70
2023-04-27T03:02:06.052Z,72.90
2023-04-27T03:04:34.438Z,73.20
2023-04-27T03:07:04.278Z,73.30
2023-04-27T03:09:32.600Z,73.30
2023-04-27T03:12:00.916Z,74.00
2023-04-27T03:14:29.273Z,74.80
2023-04-27T03:16:57.607Z,76.00
2023-04-27T03:19:26.086Z,77.50
2023-04-27T03:21:54.418Z,77.90
2023-04-27T03:24:25.628Z,78.30
2023-04-27T03:26:54.059Z,79.90
2023-04-27T03:29:22.481Z,80.10
2023-04-27T03:31:50.961Z,80.60
2023-04-27T03:34:21.053Z,80.80
2023-04-27T03:36:49.453Z,82.00
2023-04-27T03:39:17.800Z,81.80
2023-04-27T03:41:47.632Z,82.70
2023-04-27T03:44:16.126Z,82.50
2023-04-27T03:46:44.448Z,82.70
2023-04-27T03:49:13.101Z,83.00
2023-04-27T03:51:42.469Z,83.50
2023-04-27T03:54:10.991Z,83.70
2023-04-27T03:56:39.386Z,83.70
2023-04-27T03:59:09.450Z,83.80
2023-04-27T04:01:40.086Z,84.10
2023-04-27T04:04:08.710Z,84.10
2023-04-27T04:06:37.472Z,84.10
2023-04-27T04:09:05.839Z,83.90
2023-04-27T04:11:34.271Z,84.30
2023-04-27T04:14:02.782Z,84.40
2023-04-27T04:16:34.376Z,84.50
2023-04-27T04:19:02.749Z,84.50
2023-04-27T04:21:31.918Z,84.30
2023-04-27T04:24:00.238Z,84.80
2023-04-27T04:26:28.746Z,84.50
2023-04-27T04:28:57.267Z,85.00
2023-04-27T04:31:26.592Z,85.20
2023-04-27T04:33:56.864Z,85.30
2023-04-27T04:36:25.651Z,85.00
2023-04-27T04:38:54.950Z,84.90
2023-04-27T04:41:23.898Z,85.00
2023-04-27T04:43:52.229Z,85.90
2023-04-27T04:46:22.387Z,85.30
2023-04-27T04:48:52.153Z,85.00
2023-04-27T04:51:23.025Z,85.00
2023-04-27T04:53:51.343Z,86.20
2023-04-27T04:56:19.769Z,85.50
2023-04-27T04:58:48.095Z,85.50
2023-04-27T05:01:16.565Z,85.40
2023-04-27T05:03:45.212Z,85.40
2023-04-27T05:06:13.652Z,85.20
2023-04-27T05:08:43.361Z,85.20
2023-04-27T05:11:11.737Z,85.30
2023-04-27T05:13:40.358Z,85.30
2023-04-27T05:16:09.481Z,85.30
2023-04-27T05:18:37.751Z,85.70
2023-04-27T05:21:07.433Z,85.90
2023-04-27T05:23:35.756Z,85.80
2023-04-27T05:26:13.052Z,85.80
2023-04-27T05:28:41.421Z,85.70
2023-04-27T05:31:13.143Z,85.60
2023-04-27T05:33:41.518Z,85.60
2023-04-27T05:36:11.129Z,85.50
2023-04-27T05:38:40.495Z,85.20
2023-04-27T05:41:10.508Z,85.20
2023-04-27T05:43:41.834Z,85.50
2023-04-27T05:46:11.353Z,85.60
2023-04-27T05:48:39.710Z,85.60
2023-04-27T05:51:08.120Z,85.70
2023-04-27T05:53:36.421Z,85.70
2023-04-27T05:56:06.998Z,85.60
2023-04-27T05:58:39.908Z,85.40
2023-04-27T06:01:08.291Z,85.10
2023-04-27T06:03:36.985Z,85.00
2023-04-27T06:06:05.835Z,85.10
2023-04-27T06:08:37.383Z,84.80
2023-04-27T06:11:08.466Z,84.20
2023-04-27T06:13:38.300Z,84.20
2023-04-27T06:16:07.176Z,84.20
2023-04-27T06:18:35.493Z,83.80
2023-04-27T06:21:03.925Z,83.70
2023-04-27T06:23:32.331Z,83.20
2023-04-27T06:26:02.390Z,83.10
2023-04-27T06:28:30.842Z,83.20
2023-04-27T06:31:00.613Z,82.90
2023-04-27T06:33:57.966Z,82.50
2023-04-27T06:36:27.934Z,82.70
2023-04-27T06:38:56.661Z,82.70
2023-04-27T06:41:25.443Z,82.10
2023-04-27T06:43:54.316Z,81.80
2023-04-27T06:46:24.035Z,82.20
2023-04-27T06:48:52.786Z,81.70
2023-04-27T06:52:07.187Z,82.00
2023-04-27T06:54:53.396Z,82.40
2023-04-27T06:57:23.007Z,81.10
2023-04-27T06:59:52.493Z,81.00
2023-04-27T07:03:27.973Z,80.50
2023-04-27T07:05:59.264Z,80.50
2023-04-27T07:08:38.009Z,79.50
2023-04-27T07:11:06.575Z,78.50
2023-04-27T07:13:34.892Z,78.80
2023-04-27T07:16:03.195Z,78.60
2023-04-27T07:18:31.539Z,78.90
2023-04-27T07:21:01.218Z,78.50
2023-04-27T07:23:29.528Z,78.30
2023-04-27T07:26:04.121Z,77.40
2023-04-27T07:28:36.136Z,77.00
2023-04-27T07:31:06.424Z,77.50
2023-04-27T07:33:35.295Z,77.40
2023-04-27T07:36:05.375Z,77.30
2023-04-27T07:38:33.683Z,77.70
2023-04-27T07:41:03.246Z,77.20
2023-04-27T07:43:33.267Z,76.60
2023-04-27T07:46:01.610Z,77.70
2023-04-27T07:48:31.959Z,77.10
2023-04-27T07:51:00.328Z,77.20
2023-04-27T07:53:30.059Z,77.00
2023-04-27T07:55:58.338Z,76.20
2023-04-27T07:58:26.693Z,76.80
2023-04-27T08:00:55.006Z,77.40
2023-04-27T08:03:23.980Z,77.00
2023-04-27T08:05:52.709Z,77.10
2023-04-27T08:08:29.348Z,76.10
2023-04-27T08:10:58.981Z,76.80
2023-04-27T08:13:27.350Z,76.80
2023-04-27T08:15:58.593Z,76.10
2023-04-27T08:18:27.297Z,76.30
2023-04-27T08:20:56.164Z,76.40
2023-04-27T08:23:27.680Z,77.00
2023-04-27T08:25:56.002Z,77.10
2023-04-27T08:28:25.811Z,77.20
2023-04-27T08:30:54.164Z,77.50
2023-04-27T08:33:22.571Z,76.80
2023-04-27T08:35:51.093Z,77.10
2023-04-27T08:38:19.506Z,76.60
2023-04-27T08:40:47.878Z,76.70
2023-04-27T08:43:16.431Z,76.50
2023-04-27T08:45:51.841Z,76.30
2023-04-27T08:48:20.474Z,76.20
2023-04-27T08:50:51.855Z,75.20
2023-04-27T08:53:21.570Z,75.20
2023-04-27T08:55:50.157Z,75.00
2023-04-27T08:58:18.464Z,75.10
2023-04-27T09:00:50.735Z,75.20
2023-04-27T09:03:24.245Z,75.10
2023-04-27T09:06:04.406Z,74.90
2023-04-27T09:08:44.215Z,75.20
2023-04-27T09:11:12.618Z,74.60
2023-04-27T09:13:45.140Z,75.40
2023-04-27T09:16:15.497Z,74.80
2023-04-27T09:18:56.838Z,74.50
2023-04-27T09:21:26.416Z,73.80
2023-04-27T09:23:55.260Z,74.00
2023-04-27T09:26:24.928Z,74.20
2023-04-27T09:28:57.131Z,74.30
2023-04-27T09:31:34.574Z,74.20
2023-04-27T09:34:04.006Z,73.40
2023-04-27T09:36:33.519Z,73.10
2023-04-27T09:39:05.605Z,73.40
2023-04-27T09:41:34.421Z,73.40
2023-04-27T09:44:03.837Z,73.00
2023-04-27T09:46:50.525Z,74.10
2023-04-27T09:49:21.657Z,73.80
2023-04-27T09:51:50.193Z,73.70
2023-04-27T09:54:19.225Z,74.80
2023-04-27T09:56:56.885Z,75.00
2023-04-27T09:59:49.840Z,76.20
2023-04-27T10:02:25.130Z,74.80
2023-04-27T10:05:21.873Z,73.70
2023-04-27T10:07:50.452Z,73.90
2023-04-27T10:10:20.543Z,73.70
2023-04-27T10:12:58.200Z,74.00
2023-04-27T10:15:30.665Z,73.70
2023-04-27T10:18:06.164Z,72.80
2023-04-27T10:20:38.393Z,73.30
2023-04-27T10:23:06.773Z,71.50
2023-04-27T10:25:42.793Z,71.90
2023-04-27T10:28:28.236Z,72.50
2023-04-27T10:31:53.733Z,73.60
2023-04-27T10:34:23.014Z,71.50
2023-04-27T10:37:06.737Z,71.40
2023-04-27T10:39:47.526Z,72.00
2023-04-27T10:42:28.833Z,71.40
2023-04-27T10:44:59.495Z,70.90
2023-04-27T10:47:41.213Z,70.10
2023-04-27T10:50:11.556Z,69.10
2023-04-27T10:52:43.930Z,70.90
2023-04-27T10:55:17.073Z,71.20
2023-04-27T10:57:50.232Z,69.80
2023-04-27T11:00:35.398Z,70.00
2023-04-27T11:03:16.663Z,70.40
2023-04-27T11:05:45.993Z,69.40
2023-04-27T11:08:17.878Z,68.60
2023-04-27T11:10:50.603Z,68.80
2023-04-27T11:13:20.818Z,68.00
2023-04-27T11:15:54.769Z,66.50
2023-04-27T11:18:24.453Z,66.70
2023-04-27T11:20:54.991Z,66.10
2023-04-27T11:23:36.963Z,65.40
2023-04-27T11:26:14.725Z,65.60
2023-04-27T11:28:43.620Z,64.10
2023-04-27T11:31:12.736Z,64.40
2023-04-27T11:33:48.945Z,65.20
2023-04-27T11:36:26.664Z,64.50
2023-04-27T11:39:00.718Z,65.90
2023-04-27T11:41:35.861Z,65.20
2023-04-27T11:44:09.043Z,64.30
2023-04-27T11:46:38.291Z,64.00
2023-04-27T11:49:22.116Z,63.60
2023-04-27T11:51:51.171Z,63.70
2023-04-27T11:54:21.014Z,63.70
2023-04-27T11:56:49.344Z,64.30
2023-04-27T11:59:22.569Z,64.30
2023-04-27T12:02:04.122Z,64.10
2023-04-27T12:04:45.549Z,63.40
2023-04-27T12:07:14.077Z,63.40
2023-04-27T12:09:43.886Z,64.60
2023-04-27T12:12:13.008Z,64.60
2023-04-27T12:14:41.716Z,65.30
2023-04-27T12:17:10.180Z,64.90
2023-04-27T12:19:38.601Z,64.30
2023-04-27T12:22:11.856Z,63.50
2023-04-27T12:24:40.293Z,63.30
2023-04-27T12:27:12.242Z,63.70
2023-04-27T12:29:42.192Z,63.80
2023-04-27T12:32:10.815Z,63.30
2023-04-27T12:34:39.629Z,63.80
2023-04-27T12:37:08.104Z,64.30
2023-04-27T12:39:42.462Z,64.50
2023-04-27T12:42:12.386Z,63.80
2023-04-27T12:44:41.408Z,63.90
2023-04-27T12:47:09.675Z,64.00
2023-04-27T12:49:38.125Z,64.50
2023-04-27T12:52:06.606Z,64.90
2023-04-27T12:54:34.887Z,65.20
2023-04-27T12:57:06.371Z,64.70
2023-04-27T12:59:36.937Z,64.80
2023-04-27T13:02:06.114Z,64.40
2023-04-27T13:04:34.787Z,64.80
2023-04-27T13:07:03.418Z,65.10
2023-04-27T13:09:31.807Z,65.80
2023-04-27T13:12:01.746Z,66.50
2023-04-27T13:15:10.213Z,67.80
2023-04-27T13:17:47.411Z,70.80
2023-04-27T13:20:18.548Z,70.80
2023-04-27T13:22:46.907Z,71.40
2023-04-27T13:25:16.686Z,72.20
2023-04-27T13:27:45.106Z,73.30
2023-04-27T13:30:17.291Z,73.60
2023-04-27T13:32:47.437Z,73.70
2023-04-27T13:35:17.796Z,74.60
2023-04-27T13:37:50.457Z,75.10
2023-04-27T13:40:18.852Z,75.10
2023-04-27T13:42:53.732Z,75.20
2023-04-27T13:45:23.844Z,75.90
2023-04-27T13:47:52.246Z,74.80
2023-04-27T13:50:28.126Z,74.40
2023-04-27T13:53:09.362Z,74.10
2023-04-27T13:55:39.686Z,74.10
2023-04-27T13:58:18.558Z,73.60
2023-04-27T14:00:49.273Z,73.50
2023-04-27T14:03:20.787Z,73.40
2023-04-27T14:05:51.850Z,72.80
2023-04-27T14:08:21.204Z,73.00
2023-04-27T14:11:14.564Z,73.00
2023-04-27T14:14:00.802Z,72.70
2023-04-27T14:16:30.757Z,74.30
2023-04-27T14:19:24.156Z,74.50
2023-04-27T14:22:01.783Z,74.80
2023-04-27T14:24:30.498Z,75.20
2023-04-27T14:26:58.834Z,75.60
2023-04-27T14:29:27.253Z,76.00
2023-04-27T14:32:01.557Z,76.40
2023-04-27T14:34:56.045Z,76.40
2023-04-27T14:37:24.586Z,76.30
2023-04-27T14:39:56.095Z,76.10
2023-04-27T14:42:24.673Z,75.80
2023-04-27T14:44:53.014Z,75.80
2023-04-27T14:47:22.793Z,75.60
2023-04-27T14:49:51.318Z,75.50
2023-04-27T14:52:19.610Z,75.20
2023-04-27T14:54:47.838Z,75.00
2023-04-27T14:57:16.204Z,74.60
2023-04-27T14:59:54.341Z,74.20
2023-04-27T15:02:25.846Z,74.10
2023-04-27T15:04:54.239Z,74.10
2023-04-27T15:07:22.571Z,74.20
2023-04-27T15:09:51.520Z,74.20
2023-04-27T15:12:19.869Z,74.10
2023-04-27T15:14:50.137Z,74.00
2023-04-27T15:17:18.572Z,74.30
2023-04-27T15:19:48.314Z,74.10
2023-04-27T15:22:16.992Z,74.10
2023-04-27T15:24:45.318Z,74.10
2023-04-27T15:27:13.878Z,74.30
2023-04-27T15:29:42.789Z,75.10
2023-04-27T15:32:11.188Z,75.10
2023-04-27T15:34:42.635Z,74.20
2023-04-27T15:37:12.386Z,72.30
2023-04-27T15:39:40.723Z,72.80
2023-04-27T15:42:09.052Z,72.30
2023-04-27T15:44:38.507Z,72.20
2023-04-27T15:47:06.978Z,72.20
2023-04-27T15:49:45.695Z,72.20
2023-04-27T15:52:19.591Z,72.70
2023-04-27T15:54:47.909Z,73.60
2023-04-27T15:57:18.349Z,73.60
2023-04-27T15:59:46.816Z,73.80
2023-04-27T16:02:15.741Z,73.80
2023-04-27T16:04:46.434Z,72.00
2023-04-27T16:07:14.770Z,71.90
2023-04-27T16:09:45.700Z,72.50
2023-04-27T16:12:18.304Z,73.00
2023-04-27T16:14:46.909Z,72.90
2023-04-27T16:17:15.310Z,73.00
2023-04-27T16:19:43.722Z,73.00
2023-04-27T16:22:12.342Z,73.20
2023-04-27T16:24:40.864Z,72.50
2023-04-27T16:27:10.557Z,71.70
2023-04-27T16:29:38.940Z,71.00
2023-04-27T16:32:08.402Z,70.50
2023-04-27T16:34:37.378Z,71.00
2023-04-27T16:37:06.182Z,71.00
2023-04-27T16:39:44.207Z,71.20
2023-04-27T16:45:12.944Z,71.60
2023-04-27T16:47:41.938Z,71.50
2023-04-27T16:50:47.990Z,71.60
2023-04-27T16:57:11.203Z,71.80
2023-04-27T16:59:40.903Z,71.90
2023-04-27T17:02:23.084Z,71.80
2023-04-27T17:04:53.076Z,71.90
2023-04-27T17:07:21.542Z,71.80
2023-04-27T17:09:49.852Z,71.90
2023-04-27T17:12:18.339Z,72.00
2023-04-27T17:14:48.009Z,72.30
2023-04-27T17:17:16.328Z,72.30
2023-04-27T17:19:44.697Z,72.30
2023-04-27T17:22:14.965Z,72.40
2023-04-27T17:24:43.286Z,72.20
2023-04-27T17:27:11.978Z,72.20
2023-04-27T17:29:40.298Z,72.20
2023-04-27T17:32:10.473Z,72.30
2023-04-27T17:34:40.421Z,71.60
2023-04-27T17:37:10.838Z,71.60
2023-04-27T17:39:39.233Z,70.80
2023-04-27T17:42:12.675Z,70.50
2023-04-27T17:44:42.365Z,70.80
2023-04-27T17:47:12.290Z,71.90
2023-04-27T17:49:40.637Z,72.30
2023-04-27T17:52:09.707Z,72.40
2023-04-27T17:54:38.028Z,72.70
2023-04-27T17:57:06.380Z,72.90
2023-04-27T17:59:34.741Z,72.90
2023-04-27T18:02:03.195Z,73.50
2023-04-27T18:04:33.209Z,74.10
2023-04-27T18:07:01.677Z,73.50
2023-04-27T18:09:32.130Z,73.60
2023-04-27T18:12:02.419Z,73.80
2023-04-27T18:14:30.809Z,74.10
2023-04-27T18:16:59.136Z,74.40
2023-04-27T18:19:27.530Z,74.40
2023-04-27T18:21:57.331Z,74.50
2023-04-27T18:24:25.697Z,74.60
2023-04-27T18:26:54.011Z,75.00
2023-04-27T18:29:22.346Z,75.00
2023-04-27T18:31:51.588Z,74.90
2023-04-27T18:34:20.032Z,74.90
2023-04-27T18:36:51.970Z,74.90
2023-04-27T18:39:25.778Z,74.90
2023-04-27T18:41:54.185Z,74.90
2023-04-27T18:44:22.551Z,75.00
2023-04-27T18:46:50.788Z,74.90
2023-04-27T18:49:19.128Z,74.90
2023-04-27T18:51:47.404Z,74.70
2023-04-27T18:54:16.233Z,74.70
2023-04-27T18:59:47.116Z,73.80
2023-04-27T19:02:15.544Z,73.40
2023-04-27T19:04:52.795Z,73.50
2023-04-27T19:07:30.509Z,73.40
2023-04-27T19:09:58.765Z,73.30
2023-04-27T19:12:28.428Z,73.10
2023-04-27T19:14:59.146Z,72.70
2023-04-27T19:17:27.631Z,72.30
2023-04-27T19:19:56.118Z,72.00
2023-04-27T19:22:27.114Z,72.60
2023-04-27T19:24:55.520Z,73.20
2023-04-27T19:27:23.786Z,73.30
2023-04-27T19:29:55.474Z,70.90
2023-04-27T19:32:27.007Z,70.80
2023-04-27T19:34:56.579Z,70.10
2023-04-27T19:37:25.290Z,70.40
2023-04-27T19:39:53.637Z,69.30
2023-04-27T19:42:21.933Z,69.30
2023-04-27T19:44:50.250Z,69.30
2023-04-27T19:47:19.999Z,68.70
2023-04-27T19:49:48.382Z,68.10
2023-04-27T19:52:16.714Z,68.50
2023-04-27T19:54:44.997Z,67.40
2023-04-27T19:57:13.574Z,67.50
2023-04-27T19:59:41.827Z,67.50
2023-04-27T20:02:10.566Z,67.60
2023-04-27T20:04:41.558Z,68.10
2023-04-27T20:07:11.836Z,68.30
2023-04-27T20:09:40.047Z,68.40
2023-04-27T20:12:19.430Z,68.50
2023-04-27T20:14:57.041Z,68.70
2023-04-27T20:17:26.219Z,69.20
2023-04-27T20:19:56.404Z,69.40
2023-04-27T20:22:24.988Z,70.00
2023-04-27T20:24:53.269Z,70.60
2023-04-27T20:27:21.607Z,69.80
2023-04-27T20:29:49.889Z,70.30
2023-04-27T20:32:18.236Z,70.00
2023-04-27T20:34:46.535Z,70.00
2023-04-27T20:37:17.065Z,69.40
2023-04-27T20:39:45.395Z,69.60
2023-04-27T20:42:17.805Z,69.40
2023-04-27T20:44:47.392Z,69.50
2023-04-27T20:47:15.807Z,69.70
2023-04-27T20:49:44.165Z,69.80
2023-04-27T20:52:12.465Z,69.50
2023-04-27T20:54:42.718Z,69.20
2023-04-27T20:57:14.195Z,69.40
2023-04-27T20:59:42.767Z,69.50
2023-04-27T21:02:11.166Z,69.50
2023-04-27T21:04:39.596Z,69.50
2023-04-27T21:07:07.959Z,69.40
2023-04-27T21:09:36.288Z,69.20
2023-04-27T21:12:06.212Z,69.40
2023-04-27T21:14:34.843Z,69.00
2023-04-27T21:17:03.153Z,68.90
2023-04-27T21:19:31.588Z,69.50
2023-04-27T21:21:59.989Z,69.80
2023-04-27T21:24:28.281Z,69.70
2023-04-27T21:26:56.602Z,69.70
2023-04-27T21:29:26.280Z,70.00
2023-04-27T21:31:54.605Z,70.00
2023-04-27T21:34:22.860Z,69.70
2023-04-27T21:36:51.118Z,69.80
2023-04-27T21:39:19.365Z,69.60
2023-04-27T21:41:47.706Z,69.50
2023-04-27T21:44:16.211Z,69.60
2023-04-27T21:46:46.176Z,69.40
2023-04-27T21:49:14.551Z,69.40
2023-04-27T21:51:42.892Z,69.30
2023-04-27T21:54:11.218Z,69.30
2023-04-27T21:56:39.561Z,69.30
2023-04-27T21:59:08.102Z,69.30
2023-04-27T22:01:36.723Z,69.40
2023-04-27T22:04:07.390Z,69.40
2023-04-27T22:06:35.901Z,69.50
2023-04-27T22:09:06.470Z,69.20
2023-04-27T22:11:36.160Z,69.30
2023-04-27T22:14:04.641Z,69.30
2023-04-27T22:16:33.041Z,69.40
2023-04-27T22:19:01.407Z,69.50
2023-04-27T22:21:31.300Z,69.40
2023-04-27T22:23:59.677Z,69.40
2023-04-27T22:26:27.945Z,69.50
2023-04-27T22:28:56.283Z,69.50
2023-04-27T22:31:24.832Z,69.40
2023-04-27T22:33:53.285Z,69.50
2023-04-27T22:36:21.586Z,69.50
2023-04-27T22:38:51.634Z,69.60
2023-04-27T22:41:21.059Z,69.60
2023-04-27T22:43:49.406Z,69.60
2023-04-27T22:46:17.756Z,69.50
2023-04-27T22:48:46.113Z,69.60
2023-04-27T22:51:14.368Z,69.60
2023-04-27T22:53:42.649Z,69.60
2023-04-27T22:56:12.431Z,69.70
2023-04-27T22:58:40.873Z,69.70
2023-04-27T23:01:09.218Z,69.90
2023-04-27T23:03:37.688Z,69.90
2023-04-27T23:06:07.227Z,70.20
2023-04-27T23:08:37.301Z,70.60
2023-04-27T23:11:05.571Z,70.50
2023-04-27T23:13:35.243Z,70.40
2023-04-27T23:16:03.491Z,70.30
2023-04-27T23:18:32.099Z,70.30
2023-04-27T23:21:00.537Z,70.50
2023-04-27T23:23:28.859Z,70.80
2023-04-27T23:25:57.177Z,70.60
2023-04-27T23:28:25.545Z,70.60
2023-04-27T23:30:55.864Z,70.60
2023-04-27T23:33:24.425Z,70.70
2023-04-27T23:35:54.104Z,70.80
2023-04-27T23:38:24.068Z,71.10
2023-04-27T23:40:52.364Z,71.30
2023-04-27T23:43:20.833Z,71.30
2023-04-27T23:45:50.895Z,71.60
2023-04-27T23:48:20.936Z,71.60
2023-04-27T23:50:49.297Z,71.80
2023-04-27T23:53:17.574Z,72.10
2023-04-27T23:55:45.826Z,72.00
2023-04-27T23:58:14.118Z,72.10
